createdAt,value
2022-08-17T00:22:32.649Z,18.25
2022-08-17T00:51:57.002Z,17.75
2022-08-17T01:21:56.985Z,17.31
2022-08-17T01:51:56.998Z,17
2022-08-17T02:21:57.010Z,16.75
2022-08-17T02:51:57.006Z,15.94
2022-08-17T03:21:57.011Z,16.06
2022-08-17T03:51:57.025Z,15.81
2022-08-17T04:21:57.024Z,15.75
2022-08-17T04:51:59.081Z,15.5
2022-08-17T05:21:57.041Z,16.44
2022-08-17T05:51:57.051Z,16.81
2022-08-17T06:21:57.059Z,17.88
2022-08-17T06:51:57.057Z,18.81
2022-08-17T07:21:57.067Z,19.63
2022-08-17T07:51:57.059Z,21.06
2022-08-17T08:21:57.074Z,22.19
2022-08-17T08:51:57.072Z,23.38
2022-08-17T09:21:57.064Z,24.5
2022-08-17T09:51:57.080Z,26
2022-08-17T10:22:00.918Z,26.88
2022-08-17T10:51:57.072Z,27.75
2022-08-17T11:21:57.097Z,30.44
2022-08-17T11:51:57.082Z,29.63
2022-08-17T12:21:57.108Z,30.94
2022-08-17T12:51:57.098Z,31.88
2022-08-17T13:21:57.105Z,31.94
2022-08-17T13:51:57.116Z,30.19
2022-08-17T14:21:57.117Z,30.5
2022-08-17T14:51:57.108Z,30.94
2022-08-17T15:21:57.120Z,29.31
2022-08-17T15:51:57.127Z,28.38
2022-08-17T16:21:57.134Z,28
2022-08-17T16:51:57.127Z,28.94
2022-08-17T17:21:57.127Z,28.13
2022-08-17T17:52:09.954Z,27.19
2022-08-17T18:21:57.140Z,26.19
2022-08-17T18:51:57.144Z,25.31
2022-08-17T19:21:57.144Z,24.19
2022-08-17T19:51:57.172Z,23.44
2022-08-17T20:21:57.155Z,23
2022-08-17T20:52:01.688Z,22.5
2022-08-17T21:21:57.180Z,21.69
2022-08-17T21:51:57.200Z,21.44
2022-08-17T22:21:57.197Z,21.25
2022-08-17T22:51:57.202Z,21.31
2022-08-17T23:21:57.218Z,20.94
2022-08-17T23:51:57.223Z,20.94
